Time;durP1;ratioP1;P1;durP2;ratioP2;P2;SDS_P1;SDS_P2;PMS_P1;PMS_P2;Temp;Humidity;BMP_temperature;BMP_pressure;BME280_temperature;BME280_humidity;BME280_pressure;Samples;Min_cycle;Max_cycle;Signal;HPM_P1;HPM_P2
2022/01/24 00:01:40;;;;;;;209.83;68.40;;;;;;;;;;5033084;28;20187;-82
2022/01/24 00:04:08;;;;;;;215.23;70.87;;;;;;;;;;5033975;28;20226;-83
2022/01/24 00:06:34;;;;;;;214.90;69.07;;;;;;;;;;5032775;28;20187;-83
2022/01/24 00:09:01;;;;;;;216.53;70.70;;;-5.90;99.90;;;;;;5034006;28;20184;-83
2022/01/24 00:11:40;;;;;;;207.93;72.03;;;;;;;;;;5034089;28;20207;-83
2022/01/24 00:28:09;;;;;;;201.07;67.17;;;;;;;;;;5032588;28;20185;-83
2022/01/24 00:30:35;;;;;;;210.57;71.00;;;;;;;;;;5032292;28;20214;-83
2022/01/24 00:33:01;;;;;;;153.53;53.37;;;;;;;;;;5032636;28;20193;-83
2022/01/24 00:35:27;;;;;;;142.50;51.27;;;;;;;;;;5032359;28;20653;-83
2022/01/24 00:37:58;;;;;;;159.60;55.73;;;;;;;;;;5032033;28;20741;-83
2022/01/24 00:40:26;;;;;;;178.53;63.57;;;;;;;;;;5033478;28;20198;-83
2022/01/24 00:42:56;;;;;;;147.77;54.13;;;;;;;;;;5031988;28;20193;-83
2022/01/24 00:55:41;;;;;;;133.47;51.97;;;-6.50;99.90;;;;;;5033528;28;20189;-84
2022/01/24 00:58:07;;;;;;;146.23;53.70;;;;;;;;;;5031810;28;20642;-83
2022/01/24 01:00:34;;;;;;;145.30;53.90;;;-6.50;99.90;;;;;;5032130;28;20190;-83
2022/01/24 01:03:00;;;;;;;178.27;58.07;;;;;;;;;;5033068;28;20706;-83
2022/01/24 01:08:13;;;;;;;154.87;59.87;;;;;;;;;;5032995;28;20190;-83
2022/01/24 01:18:55;;;;;;;148.93;54.73;;;;;;;;;;5031990;28;20259;-81
2022/01/24 01:21:21;;;;;;;150.70;57.20;;;;;;;;;;5031846;28;20271;-82
2022/01/24 01:23:52;;;;;;;166.13;58.27;;;-7.00;99.90;;;;;;5032920;28;20183;-81
2022/01/24 01:26:27;;;;;;;162.60;58.37;;;-7.10;99.90;;;;;;5031594;28;20170;-82
2022/01/24 01:28:59;;;;;;;192.70;67.43;;;-7.10;99.90;;;;;;5033121;28;20195;-83
2022/01/24 01:31:45;;;;;;;185.80;65.93;;;-7.20;99.90;;;;;;5032695;28;20638;-83
2022/01/24 01:34:33;;;;;;;162.30;58.57;;;;;;;;;;5032728;28;20207;-82
2022/01/24 01:55:40;;;;;;;143.10;49.03;;;;;;;;;;5032979;28;20252;-83
2022/01/24 01:58:08;;;;;;;138.87;47.60;;;-7.40;99.90;;;;;;5031251;28;20182;-83
2022/01/24 02:00:36;;;;;;;141.93;47.23;;;-7.40;99.90;;;;;;5032710;28;20685;-83
2022/01/24 02:03:02;;;;;;;126.03;47.63;;;;;;;;;;5030619;28;20184;-83
2022/01/24 02:05:28;;;;;;;126.27;47.47;;;;;;;;;;5031370;28;20234;-83
2022/01/24 02:07:54;;;;;;;146.37;49.23;;;;;;;;;;5014922;28;20239;-83
2022/01/24 02:10:22;;;;;;;151.33;50.67;;;-7.60;99.90;;;;;;5030829;28;20189;-83
2022/01/24 02:12:50;;;;;;;143.30;50.37;;;-7.70;99.90;;;;;;5032712;28;20323;-82
2022/01/24 02:15:24;;;;;;;168.87;61.33;;;;;;;;;;5030945;28;20180;-83
2022/01/24 02:20:44;;;;;;;149.43;54.50;;;-7.80;99.90;;;;;;5032644;28;20643;-84
2022/01/24 02:25:52;;;;;;;146.47;56.43;;;-7.90;99.90;;;;;;5031591;28;20180;-82
2022/01/24 02:28:20;;;;;;;152.50;51.83;;;;;;;;;;5032450;28;20184;-82
2022/01/24 02:31:22;;;;;;;139.13;52.83;;;-8.00;99.90;;;;;;5031058;28;20209;-82
2022/01/24 02:33:49;;;;;;;131.97;46.17;;;;;;;;;;5019496;28;20536;-83
2022/01/24 02:36:23;;;;;;;125.57;43.53;;;-8.10;99.90;;;;;;5030738;28;20185;-81
2022/01/24 02:49:33;;;;;;;99.43;38.70;;;-7.50;99.90;;;;;;5035527;28;20569;-82
2022/01/24 02:52:09;;;;;;;106.93;41.10;;;-8.10;99.90;;;;;;5035274;28;20560;-82
2022/01/24 02:54:37;;;;;;;110.90;39.40;;;-8.20;99.90;;;;;;5034597;28;20188;-82
2022/01/24 02:57:04;;;;;;;108.97;38.30;;;-7.90;99.90;;;;;;5034345;28;20177;-82
2022/01/24 02:59:30;;;;;;;109.27;40.07;;;;;;;;;;5001346;28;20281;-83
2022/01/24 03:01:57;;;;;;;117.17;43.47;;;;;;;;;;5036418;28;20592;-82
2022/01/24 03:04:23;;;;;;;115.30;41.07;;;;;;;;;;5034005;28;20689;-83
2022/01/24 03:06:49;;;;;;;103.77;40.17;;;;;;;;;;5035076;28;20249;-83
2022/01/24 03:09:15;;;;;;;104.67;41.63;;;;;;;;;;5033798;28;20188;-83
2022/01/24 03:14:18;;;;;;;108.50;43.07;;;-8.20;99.90;;;;;;5035092;28;20242;-83
2022/01/24 03:16:44;;;;;;;121.10;42.97;;;;;;;;;;5034043;28;20230;-83
2022/01/24 03:19:10;;;;;;;119.70;43.87;;;;;;;;;;5017357;28;20191;-80
2022/01/24 03:21:36;;;;;;;100.40;39.30;;;;;;;;;;5034878;28;20247;-82
2022/01/24 03:24:02;;;;;;;112.97;41.30;;;-8.60;99.90;;;;;;5033939;28;20187;-82
2022/01/24 03:26:28;;;;;;;100.17;40.47;;;-8.60;99.90;;;;;;5033668;28;20275;-82
2022/01/24 03:28:54;;;;;;;116.77;40.43;;;;;;;;;;5035030;28;20238;-83
2022/01/24 03:31:20;;;;;;;139.77;44.77;;;;;;;;;;5033409;28;20204;-82
2022/01/24 03:33:46;;;;;;;146.50;48.67;;;;;;;;;;5033463;28;20188;-83
2022/01/24 03:36:12;;;;;;;148.37;50.53;;;;;;;;;;5033342;28;20287;-84
2022/01/24 03:38:38;;;;;;;120.27;41.93;;;;;;;;;;5033519;28;20257;-82
2022/01/24 03:41:04;;;;;;;149.37;47.70;;;;;;;;;;5033688;28;20660;-83
2022/01/24 03:43:30;;;;;;;140.80;44.37;;;;;;;;;;5034191;28;20181;-83
2022/01/24 03:51:09;;;;;;;108.03;38.33;;;;;;;;;;5034075;28;20723;-82
2022/01/24 03:53:35;;;;;;;104.03;38.83;;;;;;;;;;5032962;28;20194;-82
2022/01/24 03:56:01;;;;;;;103.57;36.77;;;;;;;;;;5016560;28;20184;-82
2022/01/24 03:58:27;;;;;;;114.77;35.57;;;-8.80;99.90;;;;;;5016548;28;20627;-83
2022/01/24 04:00:55;;;;;;;103.83;35.10;;;;;;;;;;5033203;28;20208;-82
2022/01/24 04:03:21;;;;;;;100.23;34.47;;;;;;;;;;5032639;28;20251;-83
2022/01/24 04:05:47;;;;;;;115.00;37.60;;;;;;;;;;5033241;28;20185;-81
2022/01/24 04:08:13;;;;;;;126.57;39.73;;;;;;;;;;5032773;28;20181;-81
2022/01/24 04:10:46;;;;;;;102.27;35.90;;;;;;;;;;5032723;28;20215;-82
2022/01/24 04:13:25;;;;;;;102.70;37.77;;;-9.00;99.90;;;;;;5033071;28;20195;-82
2022/01/24 04:23:47;;;;;;;94.30;37.83;;;;;;;;;;5033304;28;20254;-82
2022/01/24 04:26:13;;;;;;;91.33;35.43;;;;;;;;;;5032843;28;20653;-83
2022/01/24 04:28:39;;;;;;;95.40;33.87;;;;;;;;;;5032275;28;20185;-83
2022/01/24 04:31:05;;;;;;;116.23;41.23;;;;;;;;;;5032798;28;20208;-83
2022/01/24 04:33:31;;;;;;;122.97;40.83;;;;;;;;;;5032587;28;20189;-82
2022/01/24 04:35:57;;;;;;;124.10;43.23;;;;;;;;;;5033849;28;20176;-82
2022/01/24 04:38:24;;;;;;;127.87;46.53;;;;;;;;;;5033256;28;20263;-82
2022/01/24 04:40:55;;;;;;;146.07;47.53;;;;;;;;;;5016466;28;20215;-82
2022/01/24 04:46:17;;;;;;;141.07;50.37;;;;;;;;;;4993048;28;20203;-83
2022/01/24 04:54:54;;;;;;;122.97;41.93;;;;;;;;;;5033816;28;20175;-83
2022/01/24 04:56:49;;;;;;;181.23;63.20;;;;;;;;;;5019977;28;20188;-83
2022/01/24 04:59:15;;;;;;;147.77;52.93;;;;;;;;;;5016159;28;20284;-83
2022/01/24 05:01:41;;;;;;;113.17;40.90;;;;;;;;;;5032163;28;20278;-83
2022/01/24 05:04:06;;;;;;;89.87;35.50;;;-9.30;99.90;;;;;;5033886;28;20259;-83
2022/01/24 05:06:33;;;;;;;101.37;40.97;;;;;;;;;;4999540;28;20693;-83
2022/01/24 05:08:59;;;;;;;120.43;43.60;;;;;;;;;;5016227;28;20193;-83
2022/01/24 05:11:36;;;;;;;111.87;42.97;;;;;;;;;;5033238;28;20228;-84
2022/01/24 05:24:46;;;;;;;173.07;66.27;;;;;;;;;;5033074;28;20189;-83
2022/01/24 05:27:12;;;;;;;180.40;73.90;;;;;;;;;;5032889;28;20180;-83
2022/01/24 05:29:38;;;;;;;158.57;60.67;;;;;;;;;;5031905;28;20190;-83
2022/01/24 05:32:05;;;;;;;142.10;54.73;;;-9.40;99.90;;;;;;5032028;28;20284;-82
2022/01/24 05:34:32;;;;;;;152.10;59.37;;;;;;;;;;5036223;28;20187;-83
2022/01/24 05:36:58;;;;;;;107.23;43.27;;;;;;;;;;5033421;28;20263;-83
2022/01/24 05:39:24;;;;;;;142.83;50.67;;;;;;;;;;5033607;28;20188;-82
2022/01/24 05:41:50;;;;;;;136.20;51.63;;;;;;;;;;5015473;28;20285;-82
2022/01/24 05:44:16;;;;;;;110.83;45.23;;;;;;;;;;5031543;28;20180;-83
2022/01/24 05:46:42;;;;;;;139.10;47.57;;;;;;;;;;5015949;28;20180;-84
2022/01/24 05:49:08;;;;;;;145.00;50.30;;;;;;;;;;5051457;28;20586;-83
2022/01/24 05:51:34;;;;;;;108.03;39.93;;;;;;;;;;5052472;28;20211;-83
2022/01/24 05:54:01;;;;;;;101.00;39.37;;;-9.40;99.90;;;;;;5052991;28;20184;-83
2022/01/24 05:56:27;;;;;;;82.30;35.40;;;;;;;;;;5056632;28;20176;-83
2022/01/24 05:58:53;;;;;;;97.60;34.30;;;;;;;;;;5072065;28;20176;-83
2022/01/24 06:01:19;;;;;;;67.60;30.27;;;;;;;;;;5045212;28;20211;-82
2022/01/24 06:03:45;;;;;;;80.90;32.10;;;;;;;;;;5040436;28;20264;-82
2022/01/24 06:06:12;;;;;;;73.47;28.00;;;;;;;;;;5049108;28;20196;-83
2022/01/24 06:08:38;;;;;;;52.30;23.63;;;;;;;;;;5055485;28;20238;-83
2022/01/24 06:11:04;;;;;;;70.20;26.43;;;;;;;;;;5041713;28;20287;-82
2022/01/24 06:13:31;;;;;;;76.67;28.57;;;;;;;;;;5055646;28;20228;-83
2022/01/24 06:15:57;;;;;;;75.97;29.90;;;;;;;;;;5056228;28;20203;-83
2022/01/24 06:18:26;;;;;;;69.10;29.13;;;-9.80;99.90;;;;;;5059476;28;20198;-83
2022/01/24 06:20:53;;;;;;;40.00;18.73;;;;;;;;;;5053167;28;20188;-83
2022/01/24 06:23:19;;;;;;;55.37;25.37;;;;;;;;;;5055632;28;20259;-83
2022/01/24 06:25:45;;;;;;;35.60;16.37;;;;;;;;;;5058659;28;20195;-83
2022/01/24 06:28:11;;;;;;;65.97;25.60;;;;;;;;;;5058246;28;20232;-84
2022/01/24 06:30:38;;;;;;;59.90;26.23;;;;;;;;;;5057657;28;20236;-84
2022/01/24 06:33:04;;;;;;;69.70;25.87;;;;;;;;;;5055874;28;20311;-81
2022/01/24 06:35:31;;;;;;;57.13;24.40;;;-9.70;99.90;;;;;;5035968;28;20184;-80
2022/01/24 06:37:57;;;;;;;86.67;32.00;;;;;;;;;;5017833;28;20276;-83
2022/01/24 06:40:23;;;;;;;70.40;28.00;;;;;;;;;;5034015;28;20279;-82
2022/01/24 06:42:49;;;;;;;48.00;22.60;;;;;;;;;;5029234;28;20201;-81
2022/01/24 06:45:15;;;;;;;57.40;22.37;;;;;;;;;;5014448;28;20224;-82
2022/01/24 06:47:41;;;;;;;72.30;27.60;;;;;;;;;;5032908;28;20243;-82
2022/01/24 06:50:08;;;;;;;61.53;29.27;;;-9.60;99.90;;;;;;5046112;28;20196;-83
2022/01/24 06:52:34;;;;;;;63.77;29.93;;;;;;;;;;5033538;28;20306;-82
2022/01/24 06:55:00;;;;;;;70.10;27.70;;;;;;;;;;5036966;28;20244;-81
2022/01/24 06:57:27;;;;;;;60.60;28.53;;;;;;;;;;5038216;28;20558;-82
2022/01/24 06:59:53;;;;;;;56.50;23.53;;;;;;;;;;5035400;28;20240;-82
2022/01/24 07:02:19;;;;;;;67.70;28.13;;;;;;;;;;5034997;28;20189;-82
2022/01/24 07:04:45;;;;;;;62.87;24.77;;;;;;;;;;5032374;28;20239;-82
2022/01/24 07:07:12;;;;;;;55.10;26.07;;;;;;;;;;5022056;28;20205;-81
2022/01/24 07:09:38;;;;;;;69.30;28.60;;;;;;;;;;5014950;28;20403;-82
2022/01/24 07:12:05;;;;;;;41.67;21.10;;;;;;;;;;5037870;28;20204;-81
2022/01/24 07:14:31;;;;;;;69.50;26.47;;;;;;;;;;5031613;28;20192;-83
2022/01/24 07:19:28;;;;;;;95.70;40.40;;;-8.60;99.90;;;;;;5031197;28;20287;-80
2022/01/24 07:21:56;;;;;;;91.77;33.90;;;-8.50;99.90;;;;;;5032610;28;20203;-83
2022/01/24 07:24:23;;;;;;;133.60;45.20;;;;;;;;;;5031985;28;20191;-81
2022/01/24 07:26:49;;;;;;;79.37;30.87;;;;;;;;;;5025359;28;20199;-82
2022/01/24 07:29:15;;;;;;;80.13;28.53;;;;;;;;;;5020161;28;20264;-83
2022/01/24 07:31:41;;;;;;;69.77;25.73;;;;;;;;;;5016290;28;20208;-82
2022/01/24 07:34:07;;;;;;;60.97;22.43;;;;;;;;;;5016673;28;20197;-82
2022/01/24 07:36:33;;;;;;;82.17;30.90;;;;;;;;;;5023596;28;20188;-82
2022/01/24 07:38:59;;;;;;;64.03;26.70;;;;;;;;;;5019535;28;20197;-82
2022/01/24 07:41:30;;;;;;;89.67;32.40;;;;;;;;;;5032606;28;20193;-82
2022/01/24 07:43:57;;;;;;;74.73;26.77;;;-7.90;99.90;;;;;;5029128;28;20184;-82
2022/01/24 07:46:23;;;;;;;31.87;14.43;;;;;;;;;;5031218;28;20203;-82
2022/01/24 07:48:49;;;;;;;37.47;18.63;;;;;;;;;;5028260;28;20196;-83
2022/01/24 07:51:15;;;;;;;69.17;25.30;;;;;;;;;;5021635;28;20216;-85
2022/01/24 07:53:43;;;;;;;133.90;47.53;;;-7.60;99.90;;;;;;5022512;28;20200;-82
2022/01/24 07:56:09;;;;;;;63.37;27.60;;;;;;;;;;5029288;28;20187;-83
2022/01/24 07:58:35;;;;;;;32.60;13.93;;;;;;;;;;5028923;28;20263;-85
2022/01/24 08:01:01;;;;;;;42.60;19.27;;;;;;;;;;5025443;28;20204;-83
2022/01/24 08:03:27;;;;;;;34.27;13.93;;;;;;;;;;5026792;28;20272;-82
2022/01/24 08:05:53;;;;;;;35.77;16.90;;;-7.50;99.90;;;;;;5037876;28;20192;-82
2022/01/24 08:08:21;;;;;;;45.53;17.33;;;;;;;;;;5022396;28;20192;-84
2022/01/24 08:10:47;;;;;;;42.63;18.10;;;;;;;;;;5017356;28;20201;-85
2022/01/24 08:13:13;;;;;;;41.83;18.87;;;;;;;;;;5030081;28;20199;-87
2022/01/24 08:15:39;;;;;;;40.83;18.33;;;-7.30;99.90;;;;;;5036197;28;20223;-82
2022/01/24 08:18:06;;;;;;;37.13;16.57;;;;;;;;;;5042108;28;20231;-83
2022/01/24 08:20:33;;;;;;;45.63;18.20;;;;;;;;;;5033791;28;20211;-83
2022/01/24 08:22:59;;;;;;;47.97;17.40;;;;;;;;;;5032525;28;20188;-83
2022/01/24 08:25:26;;;;;;;21.13;11.87;;;;;;;;;;5025644;28;20668;-84
2022/01/24 08:27:52;;;;;;;48.10;19.97;;;;;;;;;;5025564;28;20191;-82
2022/01/24 08:30:21;;;;;;;44.97;19.97;;;-7.20;99.90;;;;;;5023448;28;20187;-84
2022/01/24 08:32:47;;;;;;;40.30;19.70;;;;;;;;;;5021809;28;20228;-84
2022/01/24 08:35:18;;;;;;;76.93;25.57;;;-6.90;99.90;;;;;;5021240;28;20262;-82
2022/01/24 08:37:44;;;;;;;37.13;17.20;;;;;;;;;;5026641;28;20197;-83
2022/01/24 08:40:20;;;;;;;139.13;46.30;;;-6.90;99.90;;;;;;5015892;28;20281;-83
2022/01/24 08:42:55;;;;;;;48.97;21.60;;;;;;;;;;5022938;28;20307;-83
2022/01/24 08:48:06;;;;;;;52.60;19.17;;;;;;;;;;5030746;28;20673;-82
2022/01/24 08:50:32;;;;;;;56.13;23.30;;;;;;;;;;5013359;28;20235;-83
2022/01/24 08:53:03;;;;;;;85.87;29.77;;;;;;;;;;5027985;28;20187;-83
2022/01/24 08:55:33;;;;;;;47.83;20.47;;;-6.50;99.90;;;;;;5035184;28;20268;-83
2022/01/24 08:58:00;;;;;;;45.27;18.17;;;;;;;;;;5034622;28;20181;-82
2022/01/24 09:00:26;;;;;;;45.50;18.87;;;-6.00;99.90;;;;;;5034077;28;20259;-83
2022/01/24 09:02:52;;;;;;;68.07;29.43;;;;;;;;;;5037548;28;20185;-83
2022/01/24 09:05:21;;;;;;;40.27;17.53;;;;;;;;;;5024489;28;20236;-81
2022/01/24 09:07:47;;;;;;;43.50;17.50;;;;;;;;;;5029890;28;20242;-81
2022/01/24 09:10:14;;;;;;;41.67;18.77;;;;;;;;;;5017718;28;20611;-83
2022/01/24 09:12:41;;;;;;;37.97;17.07;;;;;;;;;;5029209;28;20229;-81
2022/01/24 09:15:07;;;;;;;45.40;16.53;;;;;;;;;;5027450;28;20395;-82
2022/01/24 09:17:33;;;;;;;45.53;18.30;;;;;;;;;;5009997;28;20244;-81
2022/01/24 09:19:59;;;;;;;37.57;16.07;;;;;;;;;;5017478;28;20201;-81
2022/01/24 09:22:26;;;;;;;36.47;14.83;;;;;;;;;;5011977;28;20185;-81
2022/01/24 09:24:52;;;;;;;59.67;25.20;;;;;;;;;;5012795;28;20280;-81
2022/01/24 09:27:18;;;;;;;56.73;19.97;;;;;;;;;;5027197;28;20276;-81
2022/01/24 09:29:44;;;;;;;46.47;19.00;;;;;;;;;;5031567;28;20198;-82
2022/01/24 09:32:10;;;;;;;47.63;18.30;;;;;;;;;;5029905;28;20691;-83
2022/01/24 09:34:36;;;;;;;34.40;15.50;;;;;;;;;;5029774;28;20281;-83
2022/01/24 09:37:02;;;;;;;38.67;17.10;;;;;;;;;;5029613;28;20328;-83
2022/01/24 09:39:28;;;;;;;55.57;20.97;;;;;;;;;;5032210;28;20182;-82
2022/01/24 09:41:54;;;;;;;40.10;19.20;;;;;;;;;;5030148;28;20277;-82
2022/01/24 09:44:21;;;;;;;126.40;33.07;;;;;;;;;;5029699;28;20302;-82
2022/01/24 09:46:47;;;;;;;55.50;19.20;;;;;;;;;;5030195;28;20186;-82
2022/01/24 09:49:13;;;;;;;48.33;20.63;;;;;;;;;;5035623;28;20182;-84
2022/01/24 09:51:40;;;;;;;53.17;22.77;;;;;;;;;;5035102;28;20220;-83
2022/01/24 09:54:07;;;;;;;41.13;17.47;;;;;;;;;;5034660;28;20190;-82
2022/01/24 09:56:34;;;;;;;35.07;15.57;;;;;;;;;;5034914;28;20182;-82
2022/01/24 09:59:01;;;;;;;30.93;13.77;;;;;;;;;;5034138;28;20225;-83
2022/01/24 10:01:27;;;;;;;32.87;14.40;;;;;;;;;;5034803;28;20641;-82
2022/01/24 10:04:05;;;;;;;35.87;15.57;;;;;;;;;;5034480;28;20303;-83
2022/01/24 10:06:51;;;;;;;20.13;8.90;;;;;;;;;;5015606;28;20197;-83
2022/01/24 10:09:17;;;;;;;37.20;13.77;;;;;;;;;;4997224;28;20645;-84
2022/01/24 10:12:00;;;;;;;28.57;14.47;;;;;;;;;;4999872;28;20206;-83
2022/01/24 10:17:29;;;;;;;33.23;13.67;;;;;;;;;;5014656;28;20180;-84
2022/01/24 10:19:55;;;;;;;36.07;15.17;;;;;;;;;;5015119;28;20188;-84
2022/01/24 10:22:23;;;;;;;35.13;15.77;;;;;;;;;;5016834;28;20214;-83
2022/01/24 10:24:51;;;;;;;35.70;15.83;;;;;;;;;;4998332;28;20246;-83
2022/01/24 10:27:18;;;;;;;36.57;14.57;;;;;;;;;;5019249;28;20177;-84
2022/01/24 10:30:08;;;;;;;31.20;15.07;;;;;;;;;;5015335;28;20653;-81
2022/01/24 10:32:44;;;;;;;31.93;13.73;;;;;;;;;;4996641;28;20286;-83
2022/01/24 10:35:32;;;;;;;34.07;14.37;;;;;;;;;;5014441;28;20235;-83
2022/01/24 10:38:21;;;;;;;34.33;15.60;;;;;;;;;;4999048;28;20219;-84
2022/01/24 10:40:51;;;;;;;36.40;14.93;;;;;;;;;;5023736;28;20175;-82
2022/01/24 10:43:27;;;;;;;73.50;25.23;;;;;;;;;;4979672;28;20189;-84
2022/01/24 10:45:57;;;;;;;46.67;19.23;;;-3.70;99.90;;;;;;4982062;28;20319;-82
2022/01/24 10:48:28;;;;;;;46.10;19.90;;;-3.60;99.90;;;;;;4996653;28;20221;-84
2022/01/24 10:51:08;;;;;;;51.80;20.70;;;-3.60;99.90;;;;;;4999752;28;20661;-83
2022/01/24 10:53:38;;;;;;;55.33;22.47;;;;;;;;;;5016319;28;20185;-84
2022/01/24 10:56:26;;;;;;;51.07;18.20;;;-3.60;99.90;;;;;;5025037;28;20179;-84
2022/01/24 10:58:53;;;;;;;56.90;22.40;;;;;;;;;;5002749;28;20268;-83
2022/01/24 11:01:26;;;;;;;67.63;26.97;;;-3.10;99.90;;;;;;5017132;28;20207;-84
2022/01/24 11:04:08;;;;;;;69.13;27.33;;;-3.70;99.90;;;;;;5024404;28;20323;-83
2022/01/24 11:06:37;;;;;;;43.53;18.17;;;-3.80;99.90;;;;;;5027380;28;20220;-83
2022/01/24 11:09:15;;;;;;;32.40;15.03;;;;;;;;;;5023885;28;20181;-84
2022/01/24 11:11:41;;;;;;;38.90;18.40;;;;;;;;;;5031224;28;20224;-84
2022/01/24 11:14:09;;;;;;;37.27;15.30;;;;;;;;;;5014445;28;20215;-84
2022/01/24 11:16:35;;;;;;;48.23;21.57;;;;;;;;;;5013695;28;20764;-84
2022/01/24 11:19:03;;;;;;;62.30;23.37;;;-3.50;99.90;;;;;;5020256;28;20677;-84
2022/01/24 11:21:33;;;;;;;69.73;28.90;;;-3.40;99.90;;;;;;5014659;28;20196;-84
2022/01/24 11:24:03;;;;;;;40.10;17.10;;;;;;;;;;5018470;28;20197;-83
2022/01/24 11:26:29;;;;;;;44.47;17.80;;;;;;;;;;5031258;28;20224;-83
2022/01/24 11:28:55;;;;;;;57.03;23.83;;;;;;;;;;5030976;28;20283;-83
2022/01/24 11:31:24;;;;;;;37.50;16.43;;;;;;;;;;5019156;28;20217;-83
2022/01/24 11:33:56;;;;;;;33.53;16.17;;;;;;;;;;5022674;28;20196;-83
2022/01/24 11:36:36;;;;;;;36.20;15.47;;;;;;;;;;5019708;28;20215;-84
2022/01/24 11:39:02;;;;;;;36.43;16.07;;;;;;;;;;5015794;28;20191;-82
2022/01/24 11:41:34;;;;;;;44.27;17.93;;;;;;;;;;5011031;28;20268;-82
2022/01/24 11:44:11;;;;;;;39.93;18.43;;;;;;;;;;5013032;28;20182;-83
2022/01/24 11:46:56;;;;;;;36.83;15.50;;;-2.70;99.90;;;;;;5030328;28;20266;-83
2022/01/24 11:49:25;;;;;;;47.03;19.97;;;;;;;;;;5021851;28;20174;-84
2022/01/24 11:52:03;;;;;;;44.83;18.00;;;;;;;;;;5015167;28;20283;-83
2022/01/24 11:54:31;;;;;;;34.17;14.07;;;;;;;;;;5028485;28;20205;-83
2022/01/24 11:57:21;;;;;;;31.23;13.73;;;-1.90;99.90;;;;;;5017499;28;20277;-82
2022/01/24 11:59:48;;;;;;;25.23;13.27;;;;;;;;;;5026981;28;20227;-83
2022/01/24 12:02:15;;;;;;;31.93;14.70;;;;;;;;;;5015433;28;20219;-83
2022/01/24 12:04:55;;;;;;;27.43;12.97;;;;;;;;;;5027660;28;20233;-82
2022/01/24 12:07:23;;;;;;;14.47;8.17;;;;;;;;;;5029847;28;20682;-83
2022/01/24 12:09:50;;;;;;;25.30;12.83;;;;;;;;;;5033942;28;20558;-83
2022/01/24 12:12:35;;;;;;;28.07;13.77;;;;;;;;;;5030596;28;20236;-83
2022/01/24 12:15:02;;;;;;;32.00;14.70;;;;;;;;;;5032259;28;20194;-83
2022/01/24 12:18:01;;;;;;;32.50;14.40;;;0.60;96.10;;;;;;5028493;28;20188;-84
2022/01/24 12:20:30;;;;;;;28.17;12.97;;;;;;;;;;4999805;28;20199;-83
2022/01/24 12:23:00;;;;;;;24.50;12.83;;;;;;;;;;5030461;28;20195;-83
2022/01/24 12:25:49;;;;;;;65.30;25.07;;;-0.30;99.90;;;;;;5031783;28;20710;-82
2022/01/24 12:28:18;;;;;;;27.93;14.17;;;-0.70;99.90;;;;;;5031106;28;20637;-84
2022/01/24 12:31:04;;;;;;;27.80;14.80;;;-1.10;99.90;;;;;;5035406;28;20221;-82
2022/01/24 12:33:41;;;;;;;28.17;13.60;;;-1.40;99.90;;;;;;5037209;28;20207;-86
2022/01/24 12:36:10;;;;;;;30.97;13.10;;;-1.60;99.90;;;;;;5034410;28;20172;-83
2022/01/24 12:38:52;;;;;;;34.13;15.10;;;-1.50;99.90;;;;;;5034388;28;20196;-84
2022/01/24 12:41:36;;;;;;;192.50;56.63;;;-1.30;99.90;;;;;;5038350;28;20665;-84
2022/01/24 12:46:30;;;;;;;90.77;32.33;;;-0.60;99.90;;;;;;5043203;28;20185;-85
2022/01/24 12:48:58;;;;;;;51.43;20.93;;;;;;;;;;5045026;28;20241;-85
2022/01/24 12:51:25;;;;;;;42.13;18.70;;;;;;;;;;5039770;28;20203;-84
2022/01/24 12:53:52;;;;;;;41.43;17.87;;;;;;;;;;5040789;28;20190;-84
2022/01/24 12:56:18;;;;;;;28.23;14.87;;;;;;;;;;5045337;28;20551;-84
2022/01/24 12:58:48;;;;;;;32.50;14.87;;;1.10;92.10;;;;;;5038822;28;20191;-85
2022/01/24 13:01:29;;;;;;;33.70;15.07;;;;;;;;;;5045910;28;20240;-86
2022/01/24 13:04:12;;;;;;;29.43;14.80;;;;;;;;;;5040110;28;20638;-85
2022/01/24 13:06:44;;;;;;;28.27;13.80;;;0.40;99.90;;;;;;5043034;28;20259;-84
2022/01/24 13:09:25;;;;;;;32.13;14.90;;;0.90;93.40;;;;;;5034685;28;20664;-84
2022/01/24 13:11:53;;;;;;;30.97;14.80;;;;;;;;;;5035967;28;20199;-84
2022/01/24 13:14:33;;;;;;;41.87;17.87;;;;;;;;;;5035083;28;20279;-83
2022/01/24 13:25:09;;;;;;;58.13;21.43;;;;;;;;;;5030814;28;20188;-84
2022/01/24 13:27:47;;;;;;;28.97;13.43;;;;;;;;;;5038654;28;20207;-86
2022/01/24 13:30:24;;;;;;;29.13;14.23;;;;;;;;;;5037411;28;20212;-85
2022/01/24 13:32:55;;;;;;;34.17;15.33;;;;;;;;;;5054042;28;20223;-84
2022/01/24 13:35:31;;;;;;;30.80;14.40;;;-2.60;99.90;;;;;;5054484;28;20181;-83
2022/01/24 13:38:02;;;;;;;33.03;15.93;;;-3.10;99.90;;;;;;5048428;28;20188;-83
2022/01/24 13:40:35;;;;;;;33.70;13.30;;;;;;;;;;5048431;28;20203;-83
2022/01/24 13:43:01;;;;;;;44.90;15.57;;;;;;;;;;5037884;28;20268;-84
2022/01/24 13:45:27;;;;;;;30.60;15.27;;;;;;;;;;5051400;28;20181;-84
2022/01/24 13:47:58;;;;;;;32.27;13.93;;;;;;;;;;5047775;28;20250;-85
2022/01/24 13:50:24;;;;;;;25.37;12.07;;;;;;;;;;5039478;28;20187;-85
2022/01/24 13:52:50;;;;;;;27.70;12.20;;;;;;;;;;5041211;28;20248;-84
2022/01/24 13:55:18;;;;;;;45.00;18.40;;;;;;;;;;5030965;28;20210;-84
2022/01/24 13:57:46;;;;;;;59.30;23.57;;;;;;;;;;5020388;28;20600;-82
2022/01/24 14:00:15;;;;;;;38.00;16.03;;;;;;;;;;5022273;28;20182;-83
2022/01/24 14:02:41;;;;;;;35.50;15.33;;;;;;;;;;5015486;28;20249;-84
2022/01/24 14:05:08;;;;;;;39.97;17.33;;;;;;;;;;5013435;28;20261;-84
2022/01/24 14:07:41;;;;;;;41.83;16.43;;;;;;;;;;5009760;28;20196;-83
2022/01/24 14:10:09;;;;;;;32.63;13.67;;;;;;;;;;5029816;28;20641;-83
2022/01/24 14:12:44;;;;;;;29.20;13.87;;;-3.60;99.90;;;;;;5017727;28;20201;-82
2022/01/24 14:20:46;;;;;;;96.70;28.70;;;;;;;;;;5026623;28;20260;-82
2022/01/24 14:23:22;;;;;;;71.03;22.90;;;;;;;;;;5011045;28;20231;-82
2022/01/24 14:25:48;;;;;;;78.87;28.00;;;;;;;;;;5027436;28;20184;-82
2022/01/24 14:28:14;;;;;;;67.90;23.80;;;;;;;;;;5028990;28;20601;-82
2022/01/24 14:30:44;;;;;;;151.20;49.33;;;;;;;;;;5029167;28;20196;-82
2022/01/24 14:33:15;;;;;;;163.80;52.73;;;;;;;;;;5027850;28;20602;-82
2022/01/24 14:35:50;;;;;;;140.53;40.70;;;;;;;;;;5032019;28;20286;-82
2022/01/24 14:38:39;;;;;;;183.57;47.20;;;;;;;;;;5033471;28;20230;-83
2022/01/24 14:41:47;;;;;;;108.50;36.10;;;-3.90;99.90;;;;;;5034156;28;20197;-82
2022/01/24 14:47:00;;;;;;;180.43;53.70;;;;;;;;;;5033892;28;20191;-84
2022/01/24 14:49:28;;;;;;;164.90;52.90;;;;;;;;;;5032309;28;20226;-83
2022/01/24 14:51:58;;;;;;;265.00;89.97;;;;;;;;;;5032487;28;20227;-82
2022/01/24 14:54:25;;;;;;;211.97;63.43;;;;;;;;;;5033034;28;20185;-83
2022/01/24 14:56:54;;;;;;;199.20;62.57;;;;;;;;;;5032529;28;20242;-82
2022/01/24 14:59:21;;;;;;;196.03;63.33;;;;;;;;;;5031651;28;20266;-83
2022/01/24 15:01:47;;;;;;;206.13;62.57;;;;;;;;;;5030172;28;20281;-84
2022/01/24 15:04:13;;;;;;;146.07;48.40;;;;;;;;;;5017830;28;20263;-83
2022/01/24 15:06:39;;;;;;;203.67;64.03;;;;;;;;;;5032605;28;20200;-84
2022/01/24 15:09:25;;;;;;;142.57;46.17;;;;;;;;;;5034584;28;20691;-84
2022/01/24 15:11:52;;;;;;;193.83;65.13;;;;;;;;;;5029941;28;20206;-82
2022/01/24 15:14:24;;;;;;;177.33;56.33;;;-4.80;99.90;;;;;;5031789;28;20554;-83
2022/01/24 15:27:36;;;;;;;216.40;72.20;;;;;;;;;;5031390;28;20214;-83
2022/01/24 15:30:03;;;;;;;276.87;89.63;;;;;;;;;;5030901;28;20669;-81
2022/01/24 15:32:29;;;;;;;112.10;40.60;;;;;;;;;;5031934;28;20213;-83
2022/01/24 15:34:55;;;;;;;114.50;41.37;;;;;;;;;;5014586;28;20198;-83
2022/01/24 15:37:21;;;;;;;113.07;41.37;;;;;;;;;;5033950;28;20191;-83
2022/01/24 15:39:47;;;;;;;114.67;40.97;;;;;;;;;;5031693;28;20201;-83
2022/01/24 15:42:20;;;;;;;91.43;34.70;;;;;;;;;;5014257;28;20226;-82
2022/01/24 15:45:14;;;;;;;114.67;39.07;;;;;;;;;;5032678;28;20184;-82
2022/01/24 15:50:05;;;;;;;99.57;40.90;;;;;;;;;;5032237;28;20209;-83
2022/01/24 15:52:31;;;;;;;150.93;53.27;;;;;;;;;;5032020;28;20262;-83
2022/01/24 15:55:04;;;;;;;140.70;55.20;;;;;;;;;;5031022;28;20199;-84
2022/01/24 15:57:39;;;;;;;165.20;67.00;;;;;;;;;;5015843;28;20199;-84
2022/01/24 16:00:09;;;;;;;187.07;74.17;;;-6.00;99.90;;;;;;5032221;28;20195;-84
2022/01/24 16:02:35;;;;;;;182.30;73.17;;;;;;;;;;5031840;28;20664;-82
2022/01/24 16:05:01;;;;;;;162.90;59.07;;;;;;;;;;5013896;28;20300;-86
2022/01/24 16:07:27;;;;;;;144.20;56.73;;;;;;;;;;5032172;28;20240;-84
2022/01/24 16:09:53;;;;;;;166.33;63.50;;;;;;;;;;5030563;28;20197;-82
2022/01/24 16:12:19;;;;;;;169.20;65.03;;;;;;;;;;5031233;28;20218;-82
2022/01/24 16:14:45;;;;;;;184.73;78.37;;;;;;;;;;5032198;28;20223;-82
2022/01/24 16:17:12;;;;;;;263.47;127.40;;;;;;;;;;5030594;28;20658;-81
2022/01/24 16:19:44;;;;;;;182.70;81.53;;;;;;;;;;5014649;28;20667;-82
2022/01/24 16:27:13;;;;;;;239.67;88.63;;;-6.10;99.90;;;;;;5030434;28;20186;-83
2022/01/24 16:29:39;;;;;;;320.70;109.87;;;;;;;;;;5030736;28;20537;-83